CDT,Max TemperatureF,Mean TemperatureF,Min TemperatureF,Max Dew PointF,MeanDew PointF,Min DewpointF,Max Humidity, Mean Humidity, Min Humidity, Max Sea Level PressureIn, Mean Sea Level PressureIn, Min Sea Level PressureIn, Max VisibilityMiles, Mean VisibilityMiles, Min VisibilityMiles, Max Wind SpeedMPH, Mean Wind SpeedMPH, Max Gust SpeedMPH,PrecipitationIn, CloudCover, Events, WindDirDegrees
2013-8-1,80,69,56,65,58,52,99,73,40,30.02,30.00,29.97,10,9,2,17,6,25,0.00,1,Rain,278
2013-8-2,83,70,58,70,64,56,98,82,58,29.99,29.92,29.88,10,10,3,18,5,25,0.90,6,Rain-Thunderstorm,218
2013-8-3,79,69,59,67,61,52,99,76,47,30.13,30.04,29.96,10,10,5,13,3,17,0.06,3,Rain,10
2013-8-4,78,66,55,61,57,54,98,74,46,30.20,30.16,30.12,10,10,10,8,2,,0.00,3,,46
2013-8-5,76,66,55,65,60,54,95,83,58,30.14,30.03,29.91,10,10,4,16,4,24,0.08,5,Rain,141
2013-8-6,81,72,63,71,68,63,98,87,70,29.95,29.90,29.87,10,9,4,9,4,,0.00,5,,168
2013-8-7,85,76,69,78,72,66,97,88,74,29.95,29.87,29.84,10,8,2,12,7,,0.05,3,Rain,204
2013-8-8,79,71,64,66,62,55,94,76,60,30.02,29.98,29.95,10,10,10,12,6,17,0.00,4,,34
2013-8-9,82,68,57,67,61,54,97,75,45,30.06,30.02,29.99,10,10,10,8,2,,0.00,1,,266
2013-8-10,82,72,62,67,62,56,99,74,50,30.14,30.10,30.07,10,9,3,9,3,,0.00,2,,294
2013-8-11,80,68,56,67,60,55,98,74,50,30.15,30.12,30.07,10,10,10,7,1,,0.00,1,,251
2013-8-12,83,72,60,70,66,59,97,79,56,30.07,29.97,29.89,10,10,7,12,4,16,0.01,1,Rain-Thunderstorm,244
2013-8-13,71,61,51,67,55,44,99,72,45,30.16,30.06,29.93,10,9,2,15,5,21,0.00,3,,18
2013-8-14,71,58,46,56,51,45,97,77,49,30.23,30.19,30.16,10,10,10,8,1,,0.00,5,,126
2013-8-15,75,60,46,58,52,46,99,72,45,30.20,30.16,30.12,10,9,0,7,1,,0.00,2,Fog,256
2013-8-16,79,66,55,58,55,53,96,70,42,30.21,30.17,30.14,10,10,10,10,1,,0.00,1,,80
2013-8-17,78,65,52,60,56,51,99,73,44,30.25,30.21,30.17,10,10,5,10,2,17,0.00,1,,78
2013-8-18,83,68,54,64,58,54,99,74,40,30.22,30.16,30.11,10,8,1,8,1,,0.00,2,,74
2013-8-19,84,68,53,66,60,52,98,75,47,30.15,30.11,30.06,10,8,1,9,1,,0.00,1,,243
2013-8-20,87,74,60,67,64,60,97,73,46,30.16,30.11,30.07,10,9,3,9,2,,0.00,1,,186
2013-8-21,89,74,61,69,66,61,99,74,45,30.13,30.08,30.02,10,8,1,13,4,17,0.00,1,,214
2013-8-22,73,68,63,69,67,63,99,91,81,30.16,30.09,30.03,10,8,0,13,4,18,1.18,6,Fog-Rain-Thunderstorm,259
2013-8-23,82,70,60,68,62,57,100,78,46,30.18,30.14,30.11,10,7,0,10,2,,0.00,3,Fog,38
2013-8-24,83,69,56,63,60,55,94,71,49,30.28,30.24,30.18,10,10,10,9,4,,0.00,0,,113
2013-8-25,87,72,58,68,62,55,93,70,47,30.29,30.24,30.18,10,10,10,10,4,,0.00,0,,196
2013-8-26,88,75,63,74,68,60,91,78,60,30.21,30.13,30.05,10,10,10,14,6,,0.00,0,,222
2013-8-27,90,81,72,76,72,68,92,77,59,30.05,29.98,29.91,10,10,10,14,7,18,0.00,0,,228
2013-8-28,88,78,69,76,69,65,95,77,64,30.05,29.96,29.89,10,9,5,13,8,17,0.00,2,,334
2013-8-29,87,78,69,70,69,66,98,80,50,30.10,30.05,30.00,10,8,2,7,4,,0.00,4,,73
2013-8-30,93,78,63,77,69,63,99,79,52,30.01,29.91,29.81,10,8,1,16,4,33,0.41,2,Rain-Thunderstorm,232
2013-8-31,83,75,67,73,69,65,98,88,70,29.87,29.82,29.76,10,9,3,15,5,16,0.06,3,Rain-Thunderstorm,53